Princetown, United Kingdom
Current Conditions -  °F | °C
As of 8:50 AM on Sunday 26 Oct 2014 (Local Time) from EGTE Reporting Station
Broken Clouds Broken Clouds  
Wind Chill: 55°   Ceiling: 3000
Heat Index: 55°   Visibility: 6mi
Dew Point: 48°   Wind: 7mph
Humidity: 77%   Direction: 190°S
Pressure: 30.15"   Gusts: NA
Location:  50.5°N, 3.92°W
Report Text: EGTE 260750Z 19006KT 9999 BKN030 13/09 Q1021
Loading
Personal Weather Stations






























Interactive Weather Map
Tropical Storm Tracking
New forecast layout! Learn more

10-Day Weather Forecast

Advertisements
Track Severe Weather on mobile